sensor_id;sensor_type;location;lat;lon;timestamp;P1;durP1;ratioP1;P2;durP2;ratioP2
7338;SDS011;33747;49.524;8.390;2022-07-23T00:01:02;6.47;;;4.43;;
7338;SDS011;33747;49.524;8.390;2022-07-23T00:03:27;5.05;;;4.55;;
7338;SDS011;33747;49.524;8.390;2022-07-23T00:05:52;7.55;;;4.55;;
7338;SDS011;33747;49.524;8.390;2022-07-23T00:08:18;11.05;;;5.03;;
7338;SDS011;33747;49.524;8.390;2022-07-23T00:10:43;8.35;;;4.28;;
7338;SDS011;33747;49.524;8.390;2022-07-23T00:13:09;5.10;;;4.35;;
7338;SDS011;33747;49.524;8.390;2022-07-23T00:15:34;5.82;;;4.60;;
7338;SDS011;33747;49.524;8.390;2022-07-23T00:18:00;6.90;;;5.15;;
7338;SDS011;33747;49.524;8.390;2022-07-23T00:20:25;7.25;;;4.72;;
7338;SDS011;33747;49.524;8.390;2022-07-23T00:22:51;11.02;;;4.72;;
7338;SDS011;33747;49.524;8.390;2022-07-23T00:25:18;9.30;;;4.70;;
7338;SDS011;33747;49.524;8.390;2022-07-23T00:27:45;8.68;;;4.60;;
7338;SDS011;33747;49.524;8.390;2022-07-23T00:30:10;5.72;;;4.45;;
7338;SDS011;33747;49.524;8.390;2022-07-23T00:32:46;5.75;;;5.18;;
7338;SDS011;33747;49.524;8.390;2022-07-23T00:35:19;7.88;;;5.15;;
7338;SDS011;33747;49.524;8.390;2022-07-23T00:37:45;7.55;;;5.03;;
7338;SDS011;33747;49.524;8.390;2022-07-23T00:40:11;5.68;;;4.63;;
7338;SDS011;33747;49.524;8.390;2022-07-23T00:42:36;10.30;;;4.80;;
7338;SDS011;33747;49.524;8.390;2022-07-23T00:45:02;7.00;;;4.85;;
7338;SDS011;33747;49.524;8.390;2022-07-23T00:47:28;7.10;;;4.20;;
7338;SDS011;33747;49.524;8.390;2022-07-23T00:49:53;4.82;;;4.28;;
7338;SDS011;33747;49.524;8.390;2022-07-23T00:52:19;5.80;;;4.43;;
7338;SDS011;33747;49.524;8.390;2022-07-23T00:54:44;8.27;;;4.68;;
7338;SDS011;33747;49.524;8.390;2022-07-23T00:57:09;5.20;;;4.50;;
7338;SDS011;33747;49.524;8.390;2022-07-23T00:59:35;11.20;;;4.95;;
7338;SDS011;33747;49.524;8.390;2022-07-23T01:02:00;8.85;;;5.20;;
7338;SDS011;33747;49.524;8.390;2022-07-23T01:04:25;12.93;;;5.38;;
7338;SDS011;33747;49.524;8.390;2022-07-23T01:06:51;8.60;;;6.22;;
7338;SDS011;33747;49.524;8.390;2022-07-23T01:09:17;7.07;;;5.30;;
7338;SDS011;33747;49.524;8.390;2022-07-23T01:11:42;9.48;;;4.82;;
7338;SDS011;33747;49.524;8.390;2022-07-23T01:14:17;5.68;;;4.80;;
7338;SDS011;33747;49.524;8.390;2022-07-23T01:16:44;7.60;;;4.32;;
7338;SDS011;33747;49.524;8.390;2022-07-23T01:19:10;7.35;;;4.60;;
7338;SDS011;33747;49.524;8.390;2022-07-23T01:21:39;5.60;;;5.05;;
7338;SDS011;33747;49.524;8.390;2022-07-23T01:24:05;5.57;;;5.07;;
7338;SDS011;33747;49.524;8.390;2022-07-23T01:26:31;5.18;;;4.68;;
7338;SDS011;33747;49.524;8.390;2022-07-23T01:28:57;10.15;;;5.18;;
7338;SDS011;33747;49.524;8.390;2022-07-23T01:31:22;5.45;;;4.90;;
7338;SDS011;33747;49.524;8.390;2022-07-23T01:33:47;8.32;;;4.90;;
7338;SDS011;33747;49.524;8.390;2022-07-23T01:36:13;8.73;;;5.25;;
7338;SDS011;33747;49.524;8.390;2022-07-23T01:38:38;8.25;;;5.40;;
7338;SDS011;33747;49.524;8.390;2022-07-23T01:41:04;5.75;;;4.90;;
7338;SDS011;33747;49.524;8.390;2022-07-23T01:43:29;5.35;;;4.85;;
7338;SDS011;33747;49.524;8.390;2022-07-23T01:45:54;8.48;;;4.95;;
7338;SDS011;33747;49.524;8.390;2022-07-23T01:48:20;9.32;;;5.18;;
7338;SDS011;33747;49.524;8.390;2022-07-23T01:50:46;6.82;;;5.60;;
7338;SDS011;33747;49.524;8.390;2022-07-23T01:53:12;6.35;;;5.13;;
7338;SDS011;33747;49.524;8.390;2022-07-23T01:55:37;12.75;;;6.00;;
7338;SDS011;33747;49.524;8.390;2022-07-23T01:58:03;9.52;;;5.75;;
7338;SDS011;33747;49.524;8.390;2022-07-23T02:00:28;6.75;;;4.75;;
7338;SDS011;33747;49.524;8.390;2022-07-23T02:02:53;7.82;;;5.55;;
7338;SDS011;33747;49.524;8.390;2022-07-23T02:05:19;6.05;;;5.20;;
7338;SDS011;33747;49.524;8.390;2022-07-23T02:07:44;5.53;;;4.80;;
7338;SDS011;33747;49.524;8.390;2022-07-23T02:10:09;5.70;;;5.20;;
7338;SDS011;33747;49.524;8.390;2022-07-23T02:12:35;8.65;;;6.05;;
7338;SDS011;33747;49.524;8.390;2022-07-23T02:15:00;7.82;;;5.60;;
7338;SDS011;33747;49.524;8.390;2022-07-23T02:17:26;10.90;;;5.47;;
7338;SDS011;33747;49.524;8.390;2022-07-23T02:19:51;12.98;;;5.40;;
7338;SDS011;33747;49.524;8.390;2022-07-23T02:22:16;5.85;;;5.28;;
7338;SDS011;33747;49.524;8.390;2022-07-23T02:24:42;10.48;;;5.22;;
7338;SDS011;33747;49.524;8.390;2022-07-23T02:27:07;9.45;;;5.43;;
7338;SDS011;33747;49.524;8.390;2022-07-23T02:29:33;6.72;;;5.28;;
7338;SDS011;33747;49.524;8.390;2022-07-23T02:31:58;14.02;;;5.20;;
7338;SDS011;33747;49.524;8.390;2022-07-23T02:34:23;5.75;;;4.78;;
7338;SDS011;33747;49.524;8.390;2022-07-23T02:36:49;5.70;;;5.00;;
7338;SDS011;33747;49.524;8.390;2022-07-23T02:39:14;6.90;;;5.22;;
7338;SDS011;33747;49.524;8.390;2022-07-23T02:41:39;18.05;;;5.43;;
7338;SDS011;33747;49.524;8.390;2022-07-23T02:44:05;5.85;;;5.22;;
7338;SDS011;33747;49.524;8.390;2022-07-23T02:46:30;12.07;;;5.35;;
7338;SDS011;33747;49.524;8.390;2022-07-23T02:48:56;7.93;;;5.40;;
7338;SDS011;33747;49.524;8.390;2022-07-23T02:51:21;5.90;;;5.28;;
7338;SDS011;33747;49.524;8.390;2022-07-23T02:53:46;6.72;;;5.38;;
7338;SDS011;33747;49.524;8.390;2022-07-23T02:56:12;6.50;;;5.53;;
7338;SDS011;33747;49.524;8.390;2022-07-23T02:58:37;12.65;;;5.38;;
7338;SDS011;33747;49.524;8.390;2022-07-23T03:01:03;7.22;;;5.72;;
7338;SDS011;33747;49.524;8.390;2022-07-23T03:03:28;8.60;;;5.25;;
7338;SDS011;33747;49.524;8.390;2022-07-23T03:05:53;9.00;;;5.28;;
7338;SDS011;33747;49.524;8.390;2022-07-23T03:08:19;6.90;;;4.95;;
7338;SDS011;33747;49.524;8.390;2022-07-23T03:10:44;7.20;;;5.10;;
7338;SDS011;33747;49.524;8.390;2022-07-23T03:13:09;5.65;;;5.07;;
7338;SDS011;33747;49.524;8.390;2022-07-23T03:15:35;9.75;;;5.65;;
7338;SDS011;33747;49.524;8.390;2022-07-23T03:18:00;6.82;;;5.43;;
7338;SDS011;33747;49.524;8.390;2022-07-23T03:20:26;8.85;;;5.80;;
7338;SDS011;33747;49.524;8.390;2022-07-23T03:22:51;10.30;;;5.55;;
7338;SDS011;33747;49.524;8.390;2022-07-23T03:25:17;7.90;;;5.57;;
7338;SDS011;33747;49.524;8.390;2022-07-23T03:27:42;6.68;;;5.30;;
7338;SDS011;33747;49.524;8.390;2022-07-23T03:30:07;5.82;;;5.30;;
7338;SDS011;33747;49.524;8.390;2022-07-23T03:32:33;6.13;;;5.38;;
7338;SDS011;33747;49.524;8.390;2022-07-23T03:34:59;15.55;;;5.70;;
7338;SDS011;33747;49.524;8.390;2022-07-23T03:37:24;9.13;;;6.15;;
7338;SDS011;33747;49.524;8.390;2022-07-23T03:39:49;6.40;;;5.70;;
7338;SDS011;33747;49.524;8.390;2022-07-23T03:42:15;6.47;;;5.70;;
7338;SDS011;33747;49.524;8.390;2022-07-23T03:44:40;6.65;;;5.85;;
7338;SDS011;33747;49.524;8.390;2022-07-23T03:47:06;7.43;;;5.78;;
7338;SDS011;33747;49.524;8.390;2022-07-23T03:49:31;8.57;;;5.93;;
7338;SDS011;33747;49.524;8.390;2022-07-23T03:51:58;7.65;;;5.90;;
7338;SDS011;33747;49.524;8.390;2022-07-23T03:54:23;9.77;;;6.20;;
7338;SDS011;33747;49.524;8.390;2022-07-23T03:56:48;6.57;;;5.90;;
7338;SDS011;33747;49.524;8.390;2022-07-23T03:59:14;5.90;;;5.28;;
7338;SDS011;33747;49.524;8.390;2022-07-23T04:01:39;11.15;;;6.00;;
7338;SDS011;33747;49.524;8.390;2022-07-23T04:04:05;9.38;;;6.32;;
7338;SDS011;33747;49.524;8.390;2022-07-23T04:06:30;6.80;;;6.10;;
7338;SDS011;33747;49.524;8.390;2022-07-23T04:08:55;8.18;;;5.75;;
7338;SDS011;33747;49.524;8.390;2022-07-23T04:11:21;7.60;;;6.50;;
7338;SDS011;33747;49.524;8.390;2022-07-23T04:13:46;7.78;;;6.30;;
7338;SDS011;33747;49.524;8.390;2022-07-23T04:16:12;11.73;;;6.00;;
7338;SDS011;33747;49.524;8.390;2022-07-23T04:18:37;7.50;;;6.28;;
7338;SDS011;33747;49.524;8.390;2022-07-23T04:21:02;9.05;;;7.25;;
7338;SDS011;33747;49.524;8.390;2022-07-23T04:23:28;9.13;;;7.05;;
7338;SDS011;33747;49.524;8.390;2022-07-23T04:25:53;8.85;;;7.10;;
7338;SDS011;33747;49.524;8.390;2022-07-23T04:28:19;10.63;;;6.53;;
7338;SDS011;33747;49.524;8.390;2022-07-23T04:30:44;8.50;;;6.95;;
7338;SDS011;33747;49.524;8.390;2022-07-23T04:33:09;8.50;;;7.18;;
7338;SDS011;33747;49.524;8.390;2022-07-23T04:35:35;8.35;;;7.30;;
7338;SDS011;33747;49.524;8.390;2022-07-23T04:38:00;9.48;;;6.40;;
7338;SDS011;33747;49.524;8.390;2022-07-23T04:40:26;15.25;;;7.43;;
7338;SDS011;33747;49.524;8.390;2022-07-23T04:42:52;12.32;;;7.05;;
7338;SDS011;33747;49.524;8.390;2022-07-23T04:45:18;9.77;;;7.72;;
7338;SDS011;33747;49.524;8.390;2022-07-23T04:47:43;10.15;;;6.90;;
7338;SDS011;33747;49.524;8.390;2022-07-23T04:50:08;12.18;;;7.65;;
7338;SDS011;33747;49.524;8.390;2022-07-23T04:52:34;8.73;;;7.68;;
7338;SDS011;33747;49.524;8.390;2022-07-23T04:54:59;11.85;;;7.72;;
7338;SDS011;33747;49.524;8.390;2022-07-23T04:57:25;9.18;;;7.35;;
7338;SDS011;33747;49.524;8.390;2022-07-23T04:59:50;10.35;;;7.60;;
7338;SDS011;33747;49.524;8.390;2022-07-23T05:02:16;11.88;;;8.23;;
7338;SDS011;33747;49.524;8.390;2022-07-23T05:04:41;14.00;;;8.63;;
7338;SDS011;33747;49.524;8.390;2022-07-23T05:07:07;10.18;;;8.88;;
7338;SDS011;33747;49.524;8.390;2022-07-23T05:09:32;10.43;;;8.35;;
7338;SDS011;33747;49.524;8.390;2022-07-23T05:11:57;9.48;;;8.40;;
7338;SDS011;33747;49.524;8.390;2022-07-23T05:14:23;12.98;;;8.20;;
7338;SDS011;33747;49.524;8.390;2022-07-23T05:16:48;9.05;;;7.13;;
7338;SDS011;33747;49.524;8.390;2022-07-23T05:19:13;10.95;;;8.10;;
7338;SDS011;33747;49.524;8.390;2022-07-23T05:21:39;11.63;;;8.40;;
7338;SDS011;33747;49.524;8.390;2022-07-23T05:24:04;13.13;;;8.48;;
7338;SDS011;33747;49.524;8.390;2022-07-23T05:26:30;12.63;;;8.05;;
7338;SDS011;33747;49.524;8.390;2022-07-23T05:28:55;18.42;;;7.93;;
7338;SDS011;33747;49.524;8.390;2022-07-23T05:31:21;11.90;;;8.88;;
7338;SDS011;33747;49.524;8.390;2022-07-23T05:33:46;10.57;;;8.13;;
7338;SDS011;33747;49.524;8.390;2022-07-23T05:36:12;10.65;;;8.63;;
7338;SDS011;33747;49.524;8.390;2022-07-23T05:38:37;10.27;;;7.57;;
7338;SDS011;33747;49.524;8.390;2022-07-23T05:41:02;12.13;;;8.38;;
7338;SDS011;33747;49.524;8.390;2022-07-23T05:43:28;9.52;;;7.95;;
7338;SDS011;33747;49.524;8.390;2022-07-23T05:45:53;15.85;;;8.82;;
7338;SDS011;33747;49.524;8.390;2022-07-23T05:48:19;10.60;;;8.55;;
7338;SDS011;33747;49.524;8.390;2022-07-23T05:50:44;11.13;;;8.55;;
7338;SDS011;33747;49.524;8.390;2022-07-23T05:53:10;10.90;;;9.05;;
7338;SDS011;33747;49.524;8.390;2022-07-23T05:55:35;9.25;;;8.32;;
7338;SDS011;33747;49.524;8.390;2022-07-23T05:58:00;11.50;;;8.55;;
7338;SDS011;33747;49.524;8.390;2022-07-23T06:00:26;10.68;;;7.85;;
7338;SDS011;33747;49.524;8.390;2022-07-23T06:02:52;11.88;;;10.60;;
7338;SDS011;33747;49.524;8.390;2022-07-23T06:05:18;10.43;;;8.98;;
7338;SDS011;33747;49.524;8.390;2022-07-23T06:07:43;12.50;;;9.50;;
7338;SDS011;33747;49.524;8.390;2022-07-23T06:10:09;10.75;;;9.05;;
7338;SDS011;33747;49.524;8.390;2022-07-23T06:12:34;10.55;;;8.48;;
7338;SDS011;33747;49.524;8.390;2022-07-23T06:15:00;8.75;;;7.60;;
7338;SDS011;33747;49.524;8.390;2022-07-23T06:17:26;10.15;;;7.85;;
7338;SDS011;33747;49.524;8.390;2022-07-23T06:19:52;13.40;;;8.38;;
7338;SDS011;33747;49.524;8.390;2022-07-23T06:22:17;9.18;;;7.85;;
7338;SDS011;33747;49.524;8.390;2022-07-23T06:24:43;9.52;;;8.27;;
7338;SDS011;33747;49.524;8.390;2022-07-23T06:27:08;11.15;;;8.52;;
7338;SDS011;33747;49.524;8.390;2022-07-23T06:29:33;14.23;;;8.48;;
7338;SDS011;33747;49.524;8.390;2022-07-23T06:31:59;9.20;;;8.38;;
7338;SDS011;33747;49.524;8.390;2022-07-23T06:34:24;8.85;;;7.95;;
7338;SDS011;33747;49.524;8.390;2022-07-23T06:36:49;8.77;;;7.93;;
7338;SDS011;33747;49.524;8.390;2022-07-23T06:39:15;11.52;;;9.23;;
7338;SDS011;33747;49.524;8.390;2022-07-23T06:41:40;14.57;;;9.15;;
7338;SDS011;33747;49.524;8.390;2022-07-23T06:44:06;8.43;;;7.40;;
7338;SDS011;33747;49.524;8.390;2022-07-23T06:46:31;10.90;;;7.90;;
7338;SDS011;33747;49.524;8.390;2022-07-23T06:48:57;16.05;;;9.20;;
7338;SDS011;33747;49.524;8.390;2022-07-23T06:51:22;13.15;;;9.55;;
7338;SDS011;33747;49.524;8.390;2022-07-23T06:53:48;11.63;;;9.63;;
7338;SDS011;33747;49.524;8.390;2022-07-23T06:56:13;11.48;;;8.52;;
7338;SDS011;33747;49.524;8.390;2022-07-23T06:58:38;10.27;;;9.23;;
7338;SDS011;33747;49.524;8.390;2022-07-23T07:01:04;11.63;;;7.88;;
7338;SDS011;33747;49.524;8.390;2022-07-23T07:03:29;11.65;;;8.85;;
7338;SDS011;33747;49.524;8.390;2022-07-23T07:05:54;11.52;;;8.85;;
7338;SDS011;33747;49.524;8.390;2022-07-23T07:08:22;10.82;;;9.05;;
7338;SDS011;33747;49.524;8.390;2022-07-23T07:10:47;10.60;;;8.13;;
7338;SDS011;33747;49.524;8.390;2022-07-23T07:13:13;13.00;;;8.98;;
7338;SDS011;33747;49.524;8.390;2022-07-23T07:15:38;8.18;;;7.32;;
7338;SDS011;33747;49.524;8.390;2022-07-23T07:18:04;10.65;;;9.25;;
7338;SDS011;33747;49.524;8.390;2022-07-23T07:20:29;12.98;;;7.97;;
7338;SDS011;33747;49.524;8.390;2022-07-23T07:22:54;11.05;;;8.75;;
7338;SDS011;33747;49.524;8.390;2022-07-23T07:25:20;19.42;;;9.65;;
7338;SDS011;33747;49.524;8.390;2022-07-23T07:27:45;9.80;;;8.27;;
7338;SDS011;33747;49.524;8.390;2022-07-23T07:30:11;10.70;;;7.90;;
7338;SDS011;33747;49.524;8.390;2022-07-23T07:32:37;10.35;;;8.88;;
7338;SDS011;33747;49.524;8.390;2022-07-23T07:35:03;12.30;;;8.95;;
7338;SDS011;33747;49.524;8.390;2022-07-23T07:37:29;8.80;;;7.93;;
7338;SDS011;33747;49.524;8.390;2022-07-23T07:39:54;17.15;;;7.93;;
7338;SDS011;33747;49.524;8.390;2022-07-23T07:42:20;12.85;;;8.57;;
7338;SDS011;33747;49.524;8.390;2022-07-23T07:44:45;10.75;;;6.85;;
7338;SDS011;33747;49.524;8.390;2022-07-23T07:47:10;8.88;;;7.18;;
7338;SDS011;33747;49.524;8.390;2022-07-23T07:49:36;9.52;;;7.53;;
7338;SDS011;33747;49.524;8.390;2022-07-23T07:52:02;9.23;;;7.72;;
7338;SDS011;33747;49.524;8.390;2022-07-23T07:54:27;9.43;;;6.63;;
7338;SDS011;33747;49.524;8.390;2022-07-23T07:56:53;10.65;;;7.35;;
7338;SDS011;33747;49.524;8.390;2022-07-23T07:59:18;9.05;;;6.97;;
7338;SDS011;33747;49.524;8.390;2022-07-23T08:01:44;13.35;;;6.90;;
7338;SDS011;33747;49.524;8.390;2022-07-23T08:04:09;13.90;;;7.38;;
7338;SDS011;33747;49.524;8.390;2022-07-23T08:06:34;13.95;;;7.47;;
7338;SDS011;33747;49.524;8.390;2022-07-23T08:09:00;10.80;;;7.28;;
7338;SDS011;33747;49.524;8.390;2022-07-23T08:11:25;13.45;;;8.07;;
7338;SDS011;33747;49.524;8.390;2022-07-23T08:13:51;15.02;;;7.82;;
7338;SDS011;33747;49.524;8.390;2022-07-23T08:16:16;9.77;;;7.45;;
7338;SDS011;33747;49.524;8.390;2022-07-23T08:18:41;14.60;;;7.68;;
7338;SDS011;33747;49.524;8.390;2022-07-23T08:21:07;11.25;;;6.88;;
7338;SDS011;33747;49.524;8.390;2022-07-23T08:23:32;10.45;;;6.43;;
7338;SDS011;33747;49.524;8.390;2022-07-23T08:25:57;9.52;;;6.53;;
7338;SDS011;33747;49.524;8.390;2022-07-23T08:28:24;7.32;;;5.45;;
7338;SDS011;33747;49.524;8.390;2022-07-23T08:30:50;10.35;;;7.07;;
7338;SDS011;33747;49.524;8.390;2022-07-23T08:33:16;7.80;;;7.00;;
7338;SDS011;33747;49.524;8.390;2022-07-23T08:35:46;8.88;;;4.90;;
7338;SDS011;33747;49.524;8.390;2022-07-23T08:38:16;7.25;;;5.10;;
7338;SDS011;33747;49.524;8.390;2022-07-23T08:40:43;7.38;;;6.68;;
7338;SDS011;33747;49.524;8.390;2022-07-23T08:43:16;8.65;;;6.78;;
7338;SDS011;33747;49.524;8.390;2022-07-23T08:45:45;9.95;;;6.63;;
7338;SDS011;33747;49.524;8.390;2022-07-23T08:48:15;8.10;;;6.53;;
7338;SDS011;33747;49.524;8.390;2022-07-23T08:50:47;15.70;;;7.57;;
7338;SDS011;33747;49.524;8.390;2022-07-23T08:53:14;15.50;;;7.03;;
7338;SDS011;33747;49.524;8.390;2022-07-23T08:55:40;9.55;;;6.40;;
7338;SDS011;33747;49.524;8.390;2022-07-23T08:58:05;7.78;;;7.00;;
7338;SDS011;33747;49.524;8.390;2022-07-23T09:00:31;12.50;;;7.85;;
7338;SDS011;33747;49.524;8.390;2022-07-23T09:02:56;7.80;;;6.88;;
7338;SDS011;33747;49.524;8.390;2022-07-23T09:05:21;9.68;;;6.95;;
7338;SDS011;33747;49.524;8.390;2022-07-23T09:08:06;7.65;;;6.88;;
7338;SDS011;33747;49.524;8.390;2022-07-23T09:15:56;8.70;;;6.82;;
7338;SDS011;33747;49.524;8.390;2022-07-23T09:18:27;10.23;;;7.53;;
7338;SDS011;33747;49.524;8.390;2022-07-23T09:21:10;7.70;;;6.90;;
7338;SDS011;33747;49.524;8.390;2022-07-23T09:23:46;9.05;;;6.68;;
7338;SDS011;33747;49.524;8.390;2022-07-23T09:26:18;8.35;;;6.97;;
7338;SDS011;33747;49.524;8.390;2022-07-23T09:29:08;15.75;;;8.02;;
7338;SDS011;33747;49.524;8.390;2022-07-23T09:31:49;10.70;;;8.55;;
7338;SDS011;33747;49.524;8.390;2022-07-23T09:36:48;8.73;;;7.05;;
7338;SDS011;33747;49.524;8.390;2022-07-23T09:39:15;13.23;;;8.73;;
7338;SDS011;33747;49.524;8.390;2022-07-23T09:41:44;10.88;;;7.85;;
7338;SDS011;33747;49.524;8.390;2022-07-23T09:44:12;9.63;;;8.48;;
7338;SDS011;33747;49.524;8.390;2022-07-23T09:46:37;10.50;;;7.57;;
7338;SDS011;33747;49.524;8.390;2022-07-23T09:49:10;8.10;;;7.30;;
7338;SDS011;33747;49.524;8.390;2022-07-23T09:51:59;9.63;;;8.43;;
7338;SDS011;33747;49.524;8.390;2022-07-23T09:54:36;12.63;;;7.88;;
7338;SDS011;33747;49.524;8.390;2022-07-23T09:57:07;7.90;;;7.10;;
7338;SDS011;33747;49.524;8.390;2022-07-23T09:59:40;9.45;;;7.57;;
7338;SDS011;33747;49.524;8.390;2022-07-23T10:02:07;11.00;;;8.43;;
7338;SDS011;33747;49.524;8.390;2022-07-23T10:04:34;11.52;;;7.78;;
7338;SDS011;33747;49.524;8.390;2022-07-23T10:07:00;13.68;;;8.05;;
7338;SDS011;33747;49.524;8.390;2022-07-23T10:09:35;8.63;;;7.70;;
7338;SDS011;33747;49.524;8.390;2022-07-23T10:12:05;13.20;;;7.78;;
7338;SDS011;33747;49.524;8.390;2022-07-23T10:14:39;11.30;;;7.60;;
7338;SDS011;33747;49.524;8.390;2022-07-23T10:17:05;10.13;;;7.03;;
7338;SDS011;33747;49.524;8.390;2022-07-23T10:19:31;9.02;;;8.10;;
7338;SDS011;33747;49.524;8.390;2022-07-23T10:22:01;8.95;;;8.00;;
7338;SDS011;33747;49.524;8.390;2022-07-23T10:24:40;8.63;;;7.70;;
7338;SDS011;33747;49.524;8.390;2022-07-23T10:29:58;12.60;;;7.10;;
7338;SDS011;33747;49.524;8.390;2022-07-23T10:33:05;9.07;;;7.25;;
7338;SDS011;33747;49.524;8.390;2022-07-23T10:35:33;12.00;;;7.43;;
7338;SDS011;33747;49.524;8.390;2022-07-23T10:38:20;11.88;;;7.95;;
7338;SDS011;33747;49.524;8.390;2022-07-23T10:40:56;8.40;;;7.40;;
7338;SDS011;33747;49.524;8.390;2022-07-23T10:43:26;9.75;;;7.80;;
7338;SDS011;33747;49.524;8.390;2022-07-23T10:45:52;38.15;;;9.98;;
7338;SDS011;33747;49.524;8.390;2022-07-23T10:48:22;18.23;;;7.22;;
7338;SDS011;33747;49.524;8.390;2022-07-23T10:51:10;7.32;;;6.60;;
7338;SDS011;33747;49.524;8.390;2022-07-23T10:56:16;9.65;;;7.40;;
7338;SDS011;33747;49.524;8.390;2022-07-23T10:58:46;8.75;;;7.15;;
7338;SDS011;33747;49.524;8.390;2022-07-23T11:03:57;9.35;;;6.97;;
7338;SDS011;33747;49.524;8.390;2022-07-23T11:06:24;6.20;;;5.60;;
7338;SDS011;33747;49.524;8.390;2022-07-23T11:09:03;7.60;;;6.57;;
7338;SDS011;33747;49.524;8.390;2022-07-23T11:17:21;11.05;;;6.80;;
7338;SDS011;33747;49.524;8.390;2022-07-23T11:22:37;6.45;;;5.85;;
7338;SDS011;33747;49.524;8.390;2022-07-23T11:25:03;8.07;;;6.13;;
7338;SDS011;33747;49.524;8.390;2022-07-23T11:30:04;7.82;;;6.30;;
7338;SDS011;33747;49.524;8.390;2022-07-23T11:32:31;8.05;;;5.38;;
7338;SDS011;33747;49.524;8.390;2022-07-23T11:34:59;6.35;;;5.50;;
7338;SDS011;33747;49.524;8.390;2022-07-23T11:37:38;7.80;;;6.28;;
7338;SDS011;33747;49.524;8.390;2022-07-23T11:40:06;10.77;;;6.22;;
7338;SDS011;33747;49.524;8.390;2022-07-23T11:42:34;9.98;;;5.60;;
7338;SDS011;33747;49.524;8.390;2022-07-23T11:45:00;21.30;;;5.90;;
7338;SDS011;33747;49.524;8.390;2022-07-23T11:47:26;6.97;;;5.55;;
7338;SDS011;33747;49.524;8.390;2022-07-23T11:49:52;6.20;;;5.70;;
7338;SDS011;33747;49.524;8.390;2022-07-23T11:52:21;10.15;;;6.75;;
7338;SDS011;33747;49.524;8.390;2022-07-23T11:57:24;8.02;;;6.30;;
7338;SDS011;33747;49.524;8.390;2022-07-23T11:59:53;6.45;;;5.80;;
7338;SDS011;33747;49.524;8.390;2022-07-23T12:02:21;12.45;;;5.93;;
7338;SDS011;33747;49.524;8.390;2022-07-23T12:04:48;9.50;;;6.35;;
7338;SDS011;33747;49.524;8.390;2022-07-23T12:07:24;6.47;;;5.88;;
7338;SDS011;33747;49.524;8.390;2022-07-23T12:09:52;8.55;;;5.95;;
7338;SDS011;33747;49.524;8.390;2022-07-23T12:12:18;6.75;;;6.00;;
7338;SDS011;33747;49.524;8.390;2022-07-23T12:14:50;7.78;;;5.78;;
7338;SDS011;33747;49.524;8.390;2022-07-23T12:19:42;6.38;;;5.78;;
7338;SDS011;33747;49.524;8.390;2022-07-23T12:22:07;6.95;;;6.28;;
7338;SDS011;33747;49.524;8.390;2022-07-23T12:24:51;9.05;;;5.95;;
7338;SDS011;33747;49.524;8.390;2022-07-23T12:27:24;10.50;;;6.03;;
7338;SDS011;33747;49.524;8.390;2022-07-23T12:29:50;7.75;;;6.03;;
7338;SDS011;33747;49.524;8.390;2022-07-23T12:32:20;6.82;;;6.22;;
7338;SDS011;33747;49.524;8.390;2022-07-23T12:35:06;9.25;;;6.10;;
7338;SDS011;33747;49.524;8.390;2022-07-23T12:37:34;9.05;;;5.85;;
7338;SDS011;33747;49.524;8.390;2022-07-23T12:42:45;6.70;;;6.10;;
7338;SDS011;33747;49.524;8.390;2022-07-23T12:45:11;6.30;;;5.68;;
7338;SDS011;33747;49.524;8.390;2022-07-23T12:53:24;7.32;;;5.68;;
7338;SDS011;33747;49.524;8.390;2022-07-23T12:55:51;6.07;;;5.53;;
7338;SDS011;33747;49.524;8.390;2022-07-23T12:58:23;5.57;;;5.10;;
7338;SDS011;33747;49.524;8.390;2022-07-23T13:00:50;5.55;;;5.13;;
7338;SDS011;33747;49.524;8.390;2022-07-23T13:05:48;6.50;;;5.82;;
7338;SDS011;33747;49.524;8.390;2022-07-23T13:08:13;10.32;;;6.03;;
7338;SDS011;33747;49.524;8.390;2022-07-23T13:10:38;10.73;;;5.65;;
7338;SDS011;33747;49.524;8.390;2022-07-23T13:13:08;6.50;;;5.30;;
7338;SDS011;33747;49.524;8.390;2022-07-23T13:15:34;6.35;;;5.57;;
7338;SDS011;33747;49.524;8.390;2022-07-23T13:18:00;5.82;;;5.32;;
7338;SDS011;33747;49.524;8.390;2022-07-23T13:20:25;5.32;;;4.82;;
7338;SDS011;33747;49.524;8.390;2022-07-23T13:22:51;11.35;;;5.68;;
7338;SDS011;33747;49.524;8.390;2022-07-23T13:25:16;7.85;;;5.45;;
7338;SDS011;33747;49.524;8.390;2022-07-23T13:27:41;6.13;;;5.30;;
7338;SDS011;33747;49.524;8.390;2022-07-23T13:30:07;6.03;;;4.85;;
7338;SDS011;33747;49.524;8.390;2022-07-23T13:32:34;7.20;;;4.50;;
7338;SDS011;33747;49.524;8.390;2022-07-23T13:34:59;5.63;;;5.15;;
7338;SDS011;33747;49.524;8.390;2022-07-23T13:37:25;7.65;;;5.10;;
7338;SDS011;33747;49.524;8.390;2022-07-23T13:39:51;6.15;;;4.95;;
7338;SDS011;33747;49.524;8.390;2022-07-23T13:42:16;5.38;;;4.85;;
7338;SDS011;33747;49.524;8.390;2022-07-23T13:44:41;4.97;;;4.53;;
7338;SDS011;33747;49.524;8.390;2022-07-23T13:47:07;6.13;;;4.72;;
7338;SDS011;33747;49.524;8.390;2022-07-23T13:49:32;7.35;;;5.00;;
7338;SDS011;33747;49.524;8.390;2022-07-23T13:51:58;7.82;;;5.25;;
7338;SDS011;33747;49.524;8.390;2022-07-23T13:54:23;5.50;;;4.95;;
7338;SDS011;33747;49.524;8.390;2022-07-23T13:56:49;6.25;;;5.35;;
7338;SDS011;33747;49.524;8.390;2022-07-23T13:59:14;8.80;;;5.10;;
7338;SDS011;33747;49.524;8.390;2022-07-23T14:01:39;7.65;;;4.70;;
7338;SDS011;33747;49.524;8.390;2022-07-23T14:04:05;8.20;;;5.70;;
7338;SDS011;33747;49.524;8.390;2022-07-23T14:06:30;6.93;;;5.53;;
7338;SDS011;33747;49.524;8.390;2022-07-23T14:08:55;5.80;;;5.15;;
7338;SDS011;33747;49.524;8.390;2022-07-23T14:11:21;8.60;;;5.22;;
7338;SDS011;33747;49.524;8.390;2022-07-23T14:13:46;12.20;;;5.07;;
7338;SDS011;33747;49.524;8.390;2022-07-23T14:16:12;7.82;;;4.72;;
7338;SDS011;33747;49.524;8.390;2022-07-23T14:18:37;8.40;;;4.68;;
7338;SDS011;33747;49.524;8.390;2022-07-23T14:21:03;5.32;;;4.75;;
7338;SDS011;33747;49.524;8.390;2022-07-23T14:23:28;5.30;;;4.90;;
7338;SDS011;33747;49.524;8.390;2022-07-23T14:25:54;5.32;;;4.82;;
7338;SDS011;33747;49.524;8.390;2022-07-23T14:28:19;8.60;;;5.22;;
7338;SDS011;33747;49.524;8.390;2022-07-23T14:30:45;10.27;;;4.78;;
7338;SDS011;33747;49.524;8.390;2022-07-23T14:33:10;10.35;;;4.82;;
7338;SDS011;33747;49.524;8.390;2022-07-23T14:35:38;5.63;;;4.53;;
7338;SDS011;33747;49.524;8.390;2022-07-23T14:38:03;7.85;;;4.90;;
7338;SDS011;33747;49.524;8.390;2022-07-23T14:40:29;6.00;;;4.63;;
7338;SDS011;33747;49.524;8.390;2022-07-23T14:42:54;6.07;;;4.50;;
7338;SDS011;33747;49.524;8.390;2022-07-23T14:45:20;4.97;;;4.32;;
7338;SDS011;33747;49.524;8.390;2022-07-23T14:47:46;5.85;;;4.82;;
7338;SDS011;33747;49.524;8.390;2022-07-23T14:50:11;7.63;;;4.70;;
7338;SDS011;33747;49.524;8.390;2022-07-23T14:52:37;5.85;;;4.95;;
7338;SDS011;33747;49.524;8.390;2022-07-23T14:55:02;5.03;;;4.35;;
7338;SDS011;33747;49.524;8.390;2022-07-23T14:57:27;5.38;;;4.78;;
7338;SDS011;33747;49.524;8.390;2022-07-23T14:59:53;14.02;;;4.70;;
7338;SDS011;33747;49.524;8.390;2022-07-23T15:02:18;5.80;;;4.30;;
7338;SDS011;33747;49.524;8.390;2022-07-23T15:04:44;4.88;;;4.35;;
7338;SDS011;33747;49.524;8.390;2022-07-23T15:07:09;6.07;;;4.40;;
7338;SDS011;33747;49.524;8.390;2022-07-23T15:09:34;5.18;;;4.13;;
7338;SDS011;33747;49.524;8.390;2022-07-23T15:12:00;7.55;;;4.82;;
7338;SDS011;33747;49.524;8.390;2022-07-23T15:14:25;7.43;;;5.32;;
7338;SDS011;33747;49.524;8.390;2022-07-23T15:16:51;7.38;;;4.97;;
7338;SDS011;33747;49.524;8.390;2022-07-23T15:19:16;5.82;;;5.32;;
7338;SDS011;33747;49.524;8.390;2022-07-23T15:21:42;7.10;;;5.07;;
7338;SDS011;33747;49.524;8.390;2022-07-23T15:24:07;10.02;;;4.88;;
7338;SDS011;33747;49.524;8.390;2022-07-23T15:26:33;12.43;;;5.43;;
7338;SDS011;33747;49.524;8.390;2022-07-23T15:28:58;7.20;;;4.75;;
7338;SDS011;33747;49.524;8.390;2022-07-23T15:31:24;8.48;;;5.60;;
7338;SDS011;33747;49.524;8.390;2022-07-23T15:33:49;8.00;;;4.90;;
7338;SDS011;33747;49.524;8.390;2022-07-23T15:36:17;4.80;;;4.30;;
7338;SDS011;33747;49.524;8.390;2022-07-23T15:38:43;5.95;;;4.80;;